Allakaket, Alaska
Current Conditions -  °F | °C
As of 2:53 PM on Friday 24 Oct 2014 (Local Time) from PABT Reporting Station
Light Snow Light Snow  
Wind Chill: 21°   Ceiling: 6500
Heat Index: 21°   Visibility: 10mi
Dew Point: 15°   Wind: 0mph
Humidity: 78%   Direction: NA
Pressure: 29.85"   Gusts: NA
Location:  66.57°N, 152.65°W
Report Text: PABT 242253Z 00000KT 10SM -SN FEW012 SCT048 BKN065 BKN180 M06/M09 A2985 RMK AO2 SLP126 T10611094
Loading
Personal Weather Stations






























Interactive Weather Map New forecast layout! Learn more

10-Day Weather Forecast

Advertisements
Track Severe Weather on mobile